Time;durP1;ratioP1;P1;durP2;ratioP2;P2;SDS_P1;SDS_P2;PMS_P1;PMS_P2;Temp;Humidity;BMP_temperature;BMP_pressure;BME280_temperature;BME280_humidity;BME280_pressure;Samples;Min_cycle;Max_cycle;Signal;HPM_P1;HPM_P2
2023/01/22 00:01:19;;;;;;;27.00;12.77;;;-1.20;99.90;;;-2.07;100.00;98590.25;4931254;28;20082;-72
2023/01/22 00:03:47;;;;;;;23.02;12.07;;;-1.30;99.90;;;-2.14;100.00;98585.84;4948438;28;20776;-72
2023/01/22 00:06:19;;;;;;;28.02;13.23;;;-1.30;99.90;;;-2.14;100.00;98578.22;4934152;28;20054;-71
2023/01/22 00:08:47;;;;;;;28.17;13.27;;;-1.30;99.90;;;-2.12;100.00;98585.06;4945485;28;20065;-71
2023/01/22 00:11:18;;;;;;;32.33;13.07;;;-1.30;99.90;;;-2.23;100.00;98580.53;4945397;28;20061;-71
2023/01/22 00:13:46;;;;;;;22.95;11.88;;;-1.30;99.90;;;-2.17;100.00;98591.69;4973961;28;20801;-71
2023/01/22 00:16:17;;;;;;;29.95;14.57;;;-1.30;99.90;;;-2.11;100.00;98583.38;4958416;28;20098;-71
2023/01/22 00:18:44;;;;;;;27.30;12.80;;;-1.30;99.90;;;-2.05;100.00;98586.06;4945828;28;20058;-71
2023/01/22 00:21:13;;;;;;;23.90;12.88;;;-1.30;99.90;;;-2.20;100.00;98583.16;4945962;28;20141;-71
2023/01/22 00:23:40;;;;;;;19.55;10.45;;;-1.30;99.90;;;-2.12;100.00;98592.69;4948772;28;20051;-71
2023/01/22 00:26:25;;;;;;;20.40;11.77;;;-1.30;99.90;;;-2.16;100.00;98587.50;4948365;28;20609;-71
2023/01/22 00:28:53;;;;;;;27.75;13.57;;;-1.30;99.90;;;-2.16;100.00;98584.94;4959218;28;20059;-71
2023/01/22 00:31:20;;;;;;;25.70;13.45;;;-1.30;99.90;;;-2.07;100.00;98577.53;4948766;28;20050;-71
2023/01/22 00:33:47;;;;;;;26.65;12.90;;;-1.30;99.90;;;-2.12;100.00;98579.13;4963324;28;20047;-71
2023/01/22 00:36:21;;;;;;;18.67;9.88;;;-1.30;99.90;;;-2.11;100.00;98580.81;4946235;28;20528;-71
2023/01/22 00:38:49;;;;;;;22.48;11.82;;;-1.20;99.90;;;-2.06;100.00;98584.34;4954224;28;20072;-71
2023/01/22 00:41:18;;;;;;;26.08;12.85;;;-1.30;99.90;;;-2.09;100.00;98581.72;4952772;28;20061;-71
2023/01/22 00:43:46;;;;;;;24.27;13.02;;;-1.30;99.90;;;-2.01;100.00;98580.19;4980337;28;20050;-72
2023/01/22 00:46:16;;;;;;;24.15;12.10;;;-1.20;99.90;;;-2.06;100.00;98576.69;4964530;28;20047;-71
2023/01/22 00:48:48;;;;;;;29.83;14.30;;;-1.20;99.90;;;-2.12;100.00;98581.66;4963280;28;20177;-71
2023/01/22 00:51:16;;;;;;;31.60;13.60;;;-1.30;99.90;;;-2.14;100.00;98573.13;4965352;28;20482;-70
2023/01/22 00:53:44;;;;;;;34.53;15.80;;;-1.20;99.90;;;-2.14;100.00;98566.34;4936714;28;20055;-71
2023/01/22 00:56:12;;;;;;;25.42;13.00;;;-1.20;99.90;;;-2.21;100.00;98567.03;4934989;28;20069;-71
2023/01/22 00:58:41;;;;;;;29.30;13.32;;;-1.30;99.90;;;-2.05;100.00;98564.84;4951706;28;20517;-71
2023/01/22 01:01:08;;;;;;;25.40;12.48;;;-1.30;99.90;;;-2.10;100.00;98564.72;4965224;28;20086;-71
2023/01/22 01:03:36;;;;;;;31.75;13.93;;;-1.30;99.90;;;-2.14;100.00;98562.97;4964321;28;20051;-71
2023/01/22 01:06:06;;;;;;;33.13;15.30;;;-1.30;99.90;;;-2.12;100.00;98562.16;4948492;28;20047;-71
2023/01/22 01:08:37;;;;;;;22.05;11.82;;;-1.30;99.90;;;-2.09;100.00;98556.28;4976907;28;20051;-71
2023/01/22 01:11:13;;;;;;;23.40;10.43;;;-1.30;99.90;;;-2.15;100.00;98559.53;4978392;28;20498;-71
2023/01/22 01:13:41;;;;;;;24.30;12.30;;;-1.30;99.90;;;-2.12;100.00;98551.13;4948062;28;20058;-71
2023/01/22 01:16:22;;;;;;;25.00;12.98;;;-1.30;99.90;;;-2.09;100.00;98555.44;4948500;28;20054;-71
2023/01/22 01:18:50;;;;;;;23.58;11.55;;;-1.30;99.90;;;-2.01;100.00;98549.66;4936956;28;20046;-71
2023/01/22 01:21:20;;;;;;;30.90;12.60;;;-1.20;99.90;;;-2.12;100.00;98558.78;4950798;28;20130;-71
2023/01/22 01:23:47;;;;;;;22.48;11.43;;;-1.20;99.90;;;-2.09;100.00;98556.28;4962630;28;20043;-71
2023/01/22 01:26:15;;;;;;;27.20;13.88;;;-1.20;99.90;;;-2.11;100.00;98546.06;4946340;28;20142;-71
2023/01/22 01:28:44;;;;;;;32.85;15.00;;;-1.30;99.90;;;-2.14;100.00;98546.00;4964226;28;20061;-71
2023/01/22 01:31:14;;;;;;;29.05;13.43;;;-1.30;99.90;;;-2.12;100.00;98546.06;4973810;28;20441;-71
2023/01/22 01:33:42;;;;;;;23.80;13.07;;;-1.30;99.90;;;-2.01;100.00;98547.13;4936461;28;20073;-71
2023/01/22 01:36:17;;;;;;;24.02;11.95;;;-1.30;99.90;;;-2.04;100.00;98553.84;4947150;28;20075;-71
2023/01/22 01:38:56;;;;;;;27.38;13.32;;;-1.30;99.90;;;-1.97;100.00;98542.97;4962725;28;20058;-71
2023/01/22 01:41:25;;;;;;;32.03;14.38;;;-1.20;99.90;;;-2.01;100.00;98544.59;4962757;28;20094;-71
2023/01/22 01:44:16;;;;;;;29.40;12.75;;;-1.20;99.90;;;-2.01;100.00;98539.50;4965200;28;20046;-72
2023/01/22 01:46:51;;;;;;;34.53;14.75;;;-1.20;99.90;;;-2.10;100.00;98552.00;4961973;28;20519;-71
2023/01/22 01:49:32;;;;;;;27.48;14.15;;;-1.30;99.90;;;-2.03;100.00;98545.38;4945429;28;20050;-71
2023/01/22 01:52:04;;;;;;;31.20;16.00;;;-1.30;99.90;;;-2.10;100.00;98536.75;4978073;28;20047;-71
2023/01/22 01:54:31;;;;;;;28.55;15.15;;;-1.30;99.90;;;-2.04;100.00;98541.13;4964489;28;20122;-71
2023/01/22 01:57:18;;;;;;;30.80;15.48;;;-1.20;99.90;;;-2.05;100.00;98544.47;4949902;28;20047;-72
2023/01/22 01:59:46;;;;;;;23.98;11.70;;;-1.30;99.90;;;-2.05;100.00;98539.41;4977759;28;20057;-71
2023/01/22 02:02:15;;;;;;;24.15;11.95;;;-1.20;99.90;;;-2.00;100.00;98543.78;4947363;28;20070;-71
2023/01/22 02:04:42;;;;;;;28.63;14.60;;;-1.20;99.90;;;-2.02;100.00;98547.97;4952379;28;20554;-71
2023/01/22 02:07:09;;;;;;;30.77;14.27;;;-1.30;99.90;;;-2.04;100.00;98536.91;4945767;28;20051;-71
2023/01/22 02:09:36;;;;;;;32.50;15.57;;;-1.30;99.90;;;-1.99;100.00;98548.03;4959939;28;20053;-71
2023/01/22 02:12:05;;;;;;;28.05;13.45;;;-1.20;99.90;;;-1.98;100.00;98546.38;4964309;28;20138;-71
2023/01/22 02:14:38;;;;;;;27.63;13.90;;;-1.20;99.90;;;-1.98;100.00;98547.22;4963472;28;20148;-71
2023/01/22 02:17:17;;;;;;;27.30;13.60;;;-1.20;99.90;;;-1.92;100.00;98543.94;4950966;28;20059;-72
2023/01/22 02:19:45;;;;;;;23.70;11.38;;;-1.20;99.90;;;-1.88;100.00;98544.88;4959335;28;20047;-70
2023/01/22 02:22:17;;;;;;;29.80;13.10;;;-1.10;99.90;;;-1.95;100.00;98534.56;4946353;28;20058;-71
2023/01/22 02:24:44;;;;;;;29.08;13.52;;;-1.10;99.90;;;-1.92;100.00;98538.84;4951626;28;20110;-71
2023/01/22 02:27:11;;;;;;;25.85;13.82;;;-1.20;99.90;;;-1.93;100.00;98535.44;4945913;28;20133;-71
2023/01/22 02:29:38;;;;;;;29.40;15.27;;;-1.10;99.90;;;-1.91;100.00;98536.34;4942131;28;20134;-70
2023/01/22 02:32:06;;;;;;;19.92;11.80;;;-1.10;99.90;;;-1.89;100.00;98526.22;4964047;28;20469;-71
2023/01/22 02:34:33;;;;;;;29.00;13.73;;;-1.10;99.90;;;-1.94;100.00;98531.19;4944445;28;20080;-71
2023/01/22 02:37:00;;;;;;;25.50;13.40;;;-1.10;99.90;;;-1.96;100.00;98529.41;4964030;28;20047;-71
2023/01/22 02:39:27;;;;;;;32.78;16.33;;;-1.10;99.90;;;-2.02;100.00;98522.53;4963642;28;20051;-70
2023/01/22 02:41:55;;;;;;;28.05;15.10;;;-1.20;99.90;;;-2.00;100.00;98531.06;4976921;28;20067;-71
2023/01/22 02:44:22;;;;;;;25.77;14.40;;;-1.20;99.90;;;-1.98;100.00;98526.88;4947786;28;20609;-71
2023/01/22 02:46:49;;;;;;;23.33;11.38;;;-1.10;99.90;;;-1.95;100.00;98529.47;4961390;28;20058;-71
2023/01/22 02:49:17;;;;;;;27.05;14.75;;;-1.10;99.90;;;-1.92;100.00;98528.66;4961007;28;20055;-70
2023/01/22 02:51:44;;;;;;;28.95;14.48;;;-1.10;99.90;;;-1.84;100.00;98534.81;4943962;28;20149;-71
2023/01/22 02:54:11;;;;;;;32.50;13.82;;;-1.10;99.90;;;-1.87;100.00;98532.19;4944789;28;20058;-70
2023/01/22 02:56:38;;;;;;;22.40;12.27;;;-1.10;99.90;;;-1.83;100.00;98533.09;4946694;28;20086;-71
2023/01/22 02:59:05;;;;;;;26.42;14.30;;;-1.10;99.90;;;-1.85;100.00;98527.97;4964161;28;20506;-70
2023/01/22 03:01:32;;;;;;;30.20;14.27;;;-1.00;99.90;;;-1.77;100.00;98529.00;4962143;28;20074;-70
2023/01/22 03:04:12;;;;;;;25.67;12.52;;;-1.00;99.90;;;-1.70;100.00;98524.91;4960934;28;20047;-70
2023/01/22 03:06:43;;;;;;;20.50;10.80;;;-1.00;99.90;;;-1.80;100.00;98526.41;4959446;28;20053;-70
2023/01/22 03:09:15;;;;;;;28.55;14.27;;;-1.00;99.90;;;-1.71;100.00;98521.53;4959073;28;20485;-70
2023/01/22 03:11:45;;;;;;;24.30;11.68;;;-0.90;99.90;;;-1.85;100.00;98515.25;4947688;28;20047;-70
2023/01/22 03:22:31;;;;;;;24.50;11.63;;;-0.90;99.90;;;-1.66;100.00;98508.88;4962308;28;20462;-71
2023/01/22 03:25:00;;;;;;;28.67;13.65;;;-0.90;99.90;;;-1.67;100.00;98512.25;4945458;28;20061;-71
2023/01/22 03:27:29;;;;;;;23.85;13.50;;;-0.90;99.90;;;-1.71;100.00;98513.88;4963846;28;20162;-70
2023/01/22 03:29:57;;;;;;;26.08;13.27;;;-0.80;99.90;;;-1.66;100.00;98505.50;4948461;28;20101;-71
2023/01/22 03:32:24;;;;;;;19.77;10.63;;;-0.80;99.90;;;-1.64;100.00;98504.69;4961598;28;20047;-71
2023/01/22 03:34:52;;;;;;;25.60;13.10;;;-0.80;99.90;;;-1.61;100.00;98498.81;4957476;28;20070;-71
2023/01/22 03:37:20;;;;;;;23.58;12.55;;;-0.80;99.90;;;-1.67;100.00;98503.75;4947848;28;20352;-71
2023/01/22 03:39:47;;;;;;;23.48;12.30;;;-0.80;99.90;;;-1.66;100.00;98498.72;4960267;28;20057;-70
2023/01/22 03:42:14;;;;;;;24.40;12.85;;;-0.80;99.90;;;-1.60;100.00;98503.06;4960525;28;20062;-71
2023/01/22 03:44:41;;;;;;;24.35;14.40;;;-0.80;99.90;;;-1.56;100.00;98507.38;4960291;28;20493;-70
2023/01/22 03:47:08;;;;;;;23.27;12.32;;;-0.90;99.90;;;-1.51;100.00;98513.41;4961949;28;20051;-71
2023/01/22 03:49:35;;;;;;;25.83;14.90;;;-0.80;99.90;;;-1.59;100.00;98508.19;4960738;28;20104;-70
2023/01/22 03:52:02;;;;;;;24.08;12.55;;;-0.80;99.90;;;-1.54;100.00;98509.13;4946842;28;20051;-70
2023/01/22 03:54:29;;;;;;;24.92;11.90;;;-0.80;99.90;;;-1.58;100.00;98506.50;4961395;28;20050;-71
2023/01/22 03:56:56;;;;;;;27.83;14.23;;;-0.80;99.90;;;-1.60;100.00;98508.16;4943669;28;20142;-70
2023/01/22 03:59:23;;;;;;;23.83;13.27;;;-0.80;99.90;;;-1.50;100.00;98505.81;4963982;28;20054;-70
2023/01/22 04:01:51;;;;;;;22.00;12.95;;;-0.80;99.90;;;-1.55;100.00;98502.34;4958561;28;20174;-70
2023/01/22 04:04:18;;;;;;;22.40;11.00;;;-0.80;99.90;;;-1.64;100.00;98503.81;4948901;28;20512;-70
2023/01/22 04:06:45;;;;;;;22.13;12.57;;;-0.80;99.90;;;-1.61;100.00;98512.38;4960513;28;20042;-70
2023/01/22 04:09:13;;;;;;;23.65;13.32;;;-0.80;99.90;;;-1.52;100.00;98511.72;4973298;28;20130;-70
2023/01/22 04:11:40;;;;;;;21.75;11.50;;;-0.80;99.90;;;-1.51;100.00;98514.28;4960524;28;20046;-70
2023/01/22 04:14:07;;;;;;;26.52;13.60;;;-0.80;99.90;;;-1.52;100.00;98516.81;4948819;28;20055;-70
2023/01/22 04:16:35;;;;;;;29.25;15.63;;;-0.70;99.90;;;-1.51;100.00;98510.88;4942399;28;20047;-70
2023/01/22 04:19:02;;;;;;;22.40;11.25;;;-0.80;99.90;;;-1.49;100.00;98516.84;4944945;28;20133;-70
2023/01/22 04:21:29;;;;;;;23.13;13.45;;;-0.70;99.90;;;-1.48;100.00;98510.97;4962674;28;20391;-70
2023/01/22 04:23:56;;;;;;;21.23;11.20;;;-0.70;99.90;;;-1.49;100.00;98516.84;4944599;28;20054;-70
2023/01/22 04:26:23;;;;;;;30.73;15.43;;;-0.70;99.90;;;-1.47;100.00;98505.03;4946605;28;20047;-70
2023/01/22 04:28:50;;;;;;;26.65;12.73;;;-0.70;99.90;;;-1.43;100.00;98509.34;4962045;28;20054;-70
2023/01/22 04:31:17;;;;;;;21.63;12.27;;;-0.70;99.90;;;-1.51;100.00;98511.72;4975058;28;20051;-70
2023/01/22 04:33:44;;;;;;;19.88;11.85;;;-0.70;99.90;;;-1.47;100.00;98512.66;4961761;28;20494;-70
2023/01/22 04:36:11;;;;;;;27.65;15.10;;;-0.70;99.90;;;-1.41;100.00;98517.03;4957109;28;20474;-70
2023/01/22 04:38:38;;;;;;;27.15;14.75;;;-0.70;99.90;;;-1.52;100.00;98514.25;4957855;28;20051;-70
2023/01/22 04:41:05;;;;;;;26.75;14.27;;;-0.70;99.90;;;-1.50;100.00;98510.91;4940404;28;20051;-70
2023/01/22 04:43:33;;;;;;;21.38;11.45;;;-0.70;99.90;;;-1.48;100.00;98511.81;4959964;28;20082;-70
2023/01/22 04:46:03;;;;;;;27.80;13.40;;;-0.70;99.90;;;-1.53;100.00;98509.97;4958615;28;20043;-70
2023/01/22 04:48:30;;;;;;;24.05;12.80;;;-0.70;99.90;;;-1.50;100.00;98507.53;4959953;28;20050;-70
2023/01/22 04:50:57;;;;;;;23.10;12.52;;;-0.70;99.90;;;-1.48;100.00;98503.31;4942722;28;20062;-70
2023/01/22 04:53:24;;;;;;;20.15;11.73;;;-0.70;99.90;;;-1.46;100.00;98506.72;4959543;28;20055;-70
2023/01/22 04:55:52;;;;;;;27.27;14.52;;;-0.60;99.90;;;-1.53;100.00;98507.44;4958675;28;20049;-70
2023/01/22 04:58:19;;;;;;;25.95;13.18;;;-0.70;99.90;;;-1.52;100.00;98501.53;4946525;28;20065;-70
2023/01/22 05:00:46;;;;;;;21.80;12.38;;;-0.70;99.90;;;-1.58;100.00;98498.84;4943561;28;20540;-70
2023/01/22 05:03:14;;;;;;;25.95;13.50;;;-0.70;99.90;;;-1.50;100.00;98499.88;4973590;28;20105;-70
2023/01/22 05:05:41;;;;;;;21.27;11.27;;;-0.70;99.90;;;-1.42;100.00;98500.88;4959072;28;20046;-70
2023/01/22 05:08:08;;;;;;;24.13;12.85;;;-0.70;99.90;;;-1.50;100.00;98503.28;4948501;28;20059;-70
2023/01/22 05:10:35;;;;;;;20.73;11.90;;;-0.70;99.90;;;-1.56;100.00;98503.16;4941448;28;20058;-70
2023/01/22 05:13:05;;;;;;;20.67;11.13;;;-0.70;99.90;;;-1.53;100.00;98510.88;4956647;28;20134;-70
2023/01/22 05:15:33;;;;;;;26.27;13.90;;;-0.70;99.90;;;-1.44;100.00;98504.22;4958460;28;20587;-70
2023/01/22 05:18:00;;;;;;;24.55;13.73;;;-0.70;99.90;;;-1.45;100.00;98508.47;4941831;28;20067;-70
2023/01/22 05:20:27;;;;;;;22.10;12.73;;;-0.70;99.90;;;-1.40;100.00;98501.75;4961008;28;20058;-70
2023/01/22 05:22:54;;;;;;;22.25;11.70;;;-0.60;99.90;;;-1.43;100.00;98506.81;4964712;28;20051;-70
2023/01/22 05:25:21;;;;;;;17.90;9.48;;;-0.60;99.90;;;-1.54;100.00;98509.13;4961131;28;20046;-70
2023/01/22 05:27:49;;;;;;;23.40;12.05;;;-0.60;99.90;;;-1.52;100.00;98504.94;4977282;28;20058;-70
2023/01/22 05:30:16;;;;;;;29.73;15.20;;;-0.70;99.90;;;-1.47;100.00;98512.66;4962944;28;20054;-71
2023/01/22 05:32:44;;;;;;;25.63;14.07;;;-0.70;99.90;;;-1.48;100.00;98506.72;4962619;28;20047;-70
2023/01/22 05:35:11;;;;;;;29.75;14.88;;;-0.70;99.90;;;-1.44;100.00;98512.72;4964326;28;20053;-70
2023/01/22 05:37:38;;;;;;;22.13;12.18;;;-0.60;99.90;;;-1.43;100.00;98518.69;4947325;28;20050;-70
2023/01/22 05:40:06;;;;;;;23.42;12.73;;;-0.60;99.90;;;-1.42;100.00;98520.38;4947201;28;20142;-70
2023/01/22 05:42:33;;;;;;;27.42;13.60;;;-0.60;99.90;;;-1.48;100.00;98522.00;4963013;28;20055;-70
2023/01/22 05:45:00;;;;;;;25.70;14.13;;;-0.70;99.90;;;-1.42;100.00;98533.13;4963535;28;20066;-70
2023/01/22 05:47:30;;;;;;;20.15;11.68;;;-0.60;99.90;;;-1.43;100.00;98528.88;4966147;28;20525;-71
2023/01/22 05:49:57;;;;;;;24.00;12.90;;;-0.60;99.90;;;-1.45;100.00;98523.75;4963831;28;20051;-70
2023/01/22 05:52:24;;;;;;;21.85;12.20;;;-0.60;99.90;;;-1.39;100.00;98531.50;4978228;28;20464;-70
2023/01/22 05:54:51;;;;;;;23.48;12.45;;;-0.60;99.90;;;-1.41;100.00;98524.69;4948018;28;20444;-70
2023/01/22 05:57:18;;;;;;;21.33;12.75;;;-0.60;99.90;;;-1.35;100.00;98532.41;4949955;28;20046;-70
2023/01/22 05:59:45;;;;;;;23.25;13.32;;;-0.60;99.90;;;-1.42;100.00;98536.53;4964040;28;20498;-69
2023/01/22 06:02:12;;;;;;;18.80;10.98;;;-0.60;99.90;;;-1.37;100.00;98534.94;4964146;28;20082;-70
2023/01/22 06:04:39;;;;;;;24.48;12.77;;;-0.50;99.90;;;-1.35;100.00;98540.91;4963695;28;20086;-69
2023/01/22 06:07:06;;;;;;;29.92;15.30;;;-0.50;99.90;;;-1.43;100.00;98539.06;4959856;28;20390;-70
2023/01/22 06:09:33;;;;;;;23.17;12.77;;;-0.60;99.90;;;-1.35;100.00;98533.28;4949120;28;20047;-69
2023/01/22 06:12:00;;;;;;;22.40;11.98;;;-0.50;99.90;;;-1.41;100.00;98534.84;4944910;28;20049;-72
2023/01/22 06:14:27;;;;;;;25.73;13.68;;;-0.50;99.90;;;-1.34;100.00;98535.00;4945117;28;20054;-72
2023/01/22 06:16:54;;;;;;;20.92;11.70;;;-0.60;99.90;;;-1.39;100.00;98539.16;4946621;28;20066;-70
2023/01/22 06:19:24;;;;;;;25.65;14.48;;;-0.60;99.90;;;-1.36;100.00;98538.34;4945427;28;20081;-69
2023/01/22 06:21:51;;;;;;;26.63;15.32;;;-0.60;99.90;;;-1.39;100.00;98548.44;4959359;28;20057;-69
2023/01/22 06:24:18;;;;;;;25.65;14.13;;;-0.60;99.90;;;-1.41;100.00;98542.50;4961337;28;20050;-72
2023/01/22 06:26:45;;;;;;;29.08;14.73;;;-0.60;99.90;;;-1.38;100.00;98548.50;4960724;28;20435;-70
2023/01/22 06:29:12;;;;;;;22.98;11.73;;;-0.60;99.90;;;-1.39;100.00;98545.91;4944012;28;20051;-72
2023/01/22 06:31:39;;;;;;;20.13;11.60;;;-0.60;99.90;;;-1.37;100.00;98541.72;4956579;28;20054;-72
2023/01/22 06:34:08;;;;;;;25.60;12.30;;;-0.50;99.90;;;-1.41;100.00;98542.50;4974402;28;20058;-72
2023/01/22 06:36:35;;;;;;;20.08;11.15;;;-0.60;99.90;;;-1.41;100.00;98543.34;4975035;28;20535;-72
2023/01/22 06:39:02;;;;;;;21.15;12.43;;;-0.60;99.90;;;-1.31;100.00;98544.38;4948767;28;20051;-72
2023/01/22 06:41:29;;;;;;;19.95;10.77;;;-0.60;99.90;;;-1.35;100.00;98547.69;4929563;28;20522;-71
2023/01/22 06:43:57;;;;;;;17.23;9.73;;;-0.60;99.90;;;-1.42;100.00;98549.25;4965788;28;20058;-72
2023/01/22 06:46:24;;;;;;;20.88;11.55;;;-0.50;99.90;;;-1.31;100.00;98552.88;4946342;28;20046;-71
2023/01/22 06:48:51;;;;;;;24.52;12.20;;;-0.50;99.90;;;-1.29;100.00;98550.38;4947751;28;20433;-72
2023/01/22 06:51:18;;;;;;;23.40;12.27;;;-0.50;99.90;;;-1.16;100.00;98551.50;4945493;28;20521;-70
2023/01/22 06:53:45;;;;;;;21.58;12.40;;;-0.40;99.90;;;-1.17;100.00;98557.41;4943411;28;20154;-72
2023/01/22 06:56:13;;;;;;;19.92;10.45;;;-0.50;99.90;;;-1.30;100.00;98548.63;4961323;28;20061;-72
2023/01/22 06:58:40;;;;;;;19.17;10.02;;;-0.40;99.90;;;-1.20;100.00;98552.25;4960704;28;20125;-72
2023/01/22 07:01:08;;;;;;;17.40;10.50;;;-0.40;99.90;;;-1.27;100.00;98551.28;4932840;28;20047;-70
2023/01/22 07:03:36;;;;;;;19.77;10.88;;;-0.40;99.90;;;-1.14;100.00;98558.34;4940368;28;20061;-70
2023/01/22 07:06:04;;;;;;;19.73;11.20;;;-0.40;99.90;;;-1.24;100.00;98556.41;4944564;28;20050;-69
2023/01/22 07:08:32;;;;;;;17.02;9.63;;;-0.40;99.90;;;-1.19;100.00;98559.06;4962007;28;20050;-70
2023/01/22 07:11:00;;;;;;;20.80;12.27;;;-0.40;99.90;;;-1.22;100.00;98559.00;4959609;28;20043;-70
2023/01/22 07:13:27;;;;;;;24.17;13.32;;;-0.40;99.90;;;-1.24;100.00;98558.09;4943494;28;20054;-70
2023/01/22 07:15:54;;;;;;;21.17;11.30;;;-0.40;99.90;;;-1.15;100.00;98564.25;4973186;28;20138;-72
2023/01/22 07:18:22;;;;;;;21.40;11.43;;;-0.40;99.90;;;-1.15;100.00;98566.78;4959412;28;20055;-70
2023/01/22 07:20:50;;;;;;;26.90;13.52;;;-0.40;99.90;;;-1.23;100.00;98570.00;4947761;28;20494;-70
2023/01/22 07:23:17;;;;;;;21.40;12.43;;;-0.50;99.90;;;-1.27;100.00;98571.66;4948682;28;20047;-72
2023/01/22 07:25:45;;;;;;;21.33;11.68;;;-0.50;99.90;;;-1.25;100.00;98570.00;4945468;28;20043;-70
2023/01/22 07:28:13;;;;;;;21.98;12.15;;;-0.50;99.90;;;-1.30;100.00;98581.75;4957579;28;20057;-70
2023/01/22 07:30:42;;;;;;;22.42;13.63;;;-0.50;99.90;;;-1.27;100.00;98580.16;4942388;28;20489;-70
2023/01/22 07:33:10;;;;;;;23.48;12.32;;;-0.50;99.90;;;-1.19;100.00;98577.72;4959118;28;20881;-71
2023/01/22 07:35:38;;;;;;;18.92;11.55;;;-0.50;99.90;;;-1.15;100.00;98576.97;4941430;28;20062;-71
2023/01/22 07:38:06;;;;;;;22.02;13.15;;;-0.40;99.90;;;-1.12;100.00;98592.34;4947651;28;20557;-71
2023/01/22 07:40:33;;;;;;;23.10;12.38;;;-0.40;99.90;;;-1.12;100.00;98594.91;4972194;28;20524;-71
2023/01/22 07:43:05;;;;;;;20.73;11.80;;;-0.40;99.90;;;-1.21;100.00;98594.69;4960469;28;20419;-71
2023/01/22 07:45:33;;;;;;;22.52;11.77;;;-0.40;99.90;;;-1.19;100.00;98602.34;4947717;28;20401;-70
2023/01/22 07:48:01;;;;;;;22.20;11.63;;;-0.40;99.90;;;-1.17;100.00;98603.25;4955531;28;20064;-71
2023/01/22 07:50:31;;;;;;;16.52;9.30;;;-0.40;99.90;;;-1.19;100.00;98599.81;4940293;28;20065;-70
2023/01/22 07:53:01;;;;;;;18.88;10.75;;;-0.40;99.90;;;-1.09;100.00;98606.84;4928324;28;20569;-70
2023/01/22 07:55:30;;;;;;;20.33;11.07;;;-0.30;99.90;;;-1.14;100.00;98610.94;4944051;28;20067;-70
2023/01/22 07:58:04;;;;;;;21.02;12.02;;;-0.30;99.90;;;-1.10;100.00;98612.75;4960036;28;20069;-70
2023/01/22 08:00:36;;;;;;;22.70;11.93;;;-0.30;99.90;;;-1.09;100.00;98607.69;4945894;28;20047;-70
2023/01/22 08:03:04;;;;;;;20.70;10.88;;;-0.40;99.90;;;-1.19;100.00;98610.84;4941711;28;20061;-70
2023/01/22 08:05:31;;;;;;;17.25;10.45;;;-0.30;99.90;;;-1.17;100.00;98611.75;4942987;28;20057;-70
2023/01/22 08:07:58;;;;;;;19.05;10.43;;;-0.30;99.90;;;-1.11;100.00;98624.63;4962988;28;20172;-70
2023/01/22 08:10:25;;;;;;;18.33;10.82;;;-0.30;99.90;;;-1.17;100.00;98621.94;4940979;28;20051;-70
2023/01/22 08:12:52;;;;;;;16.95;10.02;;;-0.30;99.90;;;-1.19;100.00;98625.28;4947899;28;20130;-70
2023/01/22 08:15:20;;;;;;;18.92;11.48;;;-0.30;99.90;;;-1.01;100.00;98630.75;4941956;28;20057;-70
2023/01/22 08:17:50;;;;;;;20.92;11.48;;;-0.30;99.90;;;-1.02;100.00;98639.25;4942667;28;20046;-70
2023/01/22 08:20:18;;;;;;;19.95;11.35;;;-0.30;99.90;;;-1.01;100.00;98633.31;4959135;28;20142;-70
2023/01/22 08:22:45;;;;;;;19.67;11.18;;;-0.20;99.90;;;-1.03;100.00;98634.09;4944569;28;20047;-70
2023/01/22 08:25:21;;;;;;;17.75;9.95;;;-0.20;99.90;;;-1.02;100.00;98641.78;4957491;28;20114;-71
2023/01/22 08:27:48;;;;;;;16.05;9.38;;;-0.20;99.90;;;-1.10;100.00;98636.53;4943579;28;20057;-70
2023/01/22 08:30:16;;;;;;;14.93;8.10;;;-0.20;99.90;;;-1.00;100.00;98634.16;4959545;28;20675;-70
2023/01/22 08:32:44;;;;;;;18.52;10.15;;;-0.20;99.90;;;-0.92;100.00;98637.72;4938322;28;20039;-71
2023/01/22 08:35:12;;;;;;;16.02;9.68;;;-0.20;99.90;;;-0.87;100.00;98644.66;4940823;28;20057;-70
2023/01/22 08:37:42;;;;;;;18.00;9.95;;;-0.20;99.90;;;-0.87;100.00;98637.00;4945599;28;20047;-70
2023/01/22 08:40:11;;;;;;;18.33;9.43;;;-0.10;99.90;;;-0.95;100.00;98640.22;4941236;28;20073;-70
2023/01/22 08:42:38;;;;;;;19.75;10.55;;;-0.10;99.90;;;-0.87;100.00;98636.13;4942063;28;20054;-70
2023/01/22 08:45:07;;;;;;;15.07;9.77;;;-0.10;99.90;;;-0.93;100.00;98641.97;4971763;28;20035;-70
2023/01/22 08:47:34;;;;;;;15.32;9.18;;;-0.10;99.90;;;-0.94;100.00;98640.25;4943342;28;20134;-70
2023/01/22 08:50:02;;;;;;;13.00;8.35;;;0.00;99.90;;;-0.85;100.00;98647.22;4959943;28;20515;-70
2023/01/22 08:52:29;;;;;;;21.80;12.15;;;0.00;99.90;;;-0.96;100.00;98635.94;4954353;28;20070;-70
2023/01/22 08:54:57;;;;;;;15.18;8.48;;;-0.10;99.90;;;-0.86;100.00;98635.31;4942354;28;20042;-70
2023/01/22 08:57:24;;;;;;;16.05;9.45;;;-0.10;99.90;;;-0.82;100.00;98644.75;4947203;28;20055;-70
2023/01/22 08:59:51;;;;;;;14.40;9.10;;;0.00;99.90;;;-0.75;100.00;98645.69;4964501;28;20134;-70
2023/01/22 09:02:27;;;;;;;18.45;9.65;;;0.00;99.90;;;-0.69;100.00;98656.03;4956663;28;20147;-70
2023/01/22 09:04:54;;;;;;;19.58;10.57;;;0.10;99.90;;;-0.78;100.00;98658.41;4961609;28;20153;-70
2023/01/22 09:07:21;;;;;;;17.65;10.43;;;0.20;99.90;;;-0.71;100.00;98655.13;4963571;28;20413;-70
2023/01/22 09:09:49;;;;;;;14.27;9.23;;;0.10;99.90;;;-0.70;100.00;98657.72;4958336;28;20043;-70
2023/01/22 09:12:16;;;;;;;20.40;11.43;;;0.20;99.90;;;-0.59;100.00;98662.16;4961479;28;20055;-71
2023/01/22 09:14:43;;;;;;;17.73;11.15;;;0.20;99.90;;;-0.72;100.00;98655.97;4960958;28;20446;-70
2023/01/22 09:17:11;;;;;;;15.88;10.20;;;0.20;99.90;;;-0.71;100.00;98663.66;4957924;28;20070;-70
2023/01/22 09:19:38;;;;;;;17.17;9.75;;;0.20;99.90;;;-0.50;100.00;98655.56;4958853;28;20051;-70
2023/01/22 09:22:06;;;;;;;15.80;9.73;;;0.30;99.90;;;-0.51;100.00;98665.72;4945436;28;20047;-70
2023/01/22 09:24:33;;;;;;;16.50;9.65;;;0.40;99.90;;;-0.34;100.00;98666.91;4963615;28;20510;-70
2023/01/22 09:27:00;;;;;;;16.70;10.18;;;0.50;99.90;;;-0.33;100.00;98666.06;4933644;28;20519;-70
2023/01/22 09:29:28;;;;;;;13.60;8.40;;;0.60;99.90;;;-0.17;100.00;98664.66;4962988;28;20081;-70
2023/01/22 09:31:55;;;;;;;15.15;9.05;;;0.70;99.90;;;-0.17;100.00;98671.44;4960275;28;20047;-69
2023/01/22 09:34:22;;;;;;;13.57;8.85;;;0.70;99.90;;;-0.12;100.00;98663.03;4947337;28;20070;-70
2023/01/22 09:36:50;;;;;;;14.52;9.30;;;0.90;99.90;;;-0.03;100.00;98657.22;4962883;28;20945;-70
2023/01/22 09:39:17;;;;;;;14.43;9.70;;;0.90;99.90;;;-0.05;100.00;98658.88;4977085;28;20055;-71
2023/01/22 09:41:50;;;;;;;13.20;8.65;;;0.90;99.90;;;-0.11;100.00;98664.75;4946123;28;20051;-70
2023/01/22 09:44:40;;;;;;;13.75;9.07;;;0.90;99.90;;;-0.14;100.00;98658.72;4944605;28;20161;-70
2023/01/22 09:47:18;;;;;;;13.25;8.35;;;1.00;99.90;;;-0.08;100.00;98662.25;4976799;28;20129;-73
2023/01/22 09:50:06;;;;;;;16.95;9.50;;;1.00;99.90;;;0.05;100.00;98657.38;4961907;28;20051;-71
2023/01/22 09:52:37;;;;;;;16.70;8.93;;;1.00;99.90;;;-0.12;100.00;98663.03;4945250;28;20066;-70
2023/01/22 09:55:17;;;;;;;11.15;7.18;;;0.90;99.90;;;-0.24;100.00;98661.13;4963809;28;20521;-69
2023/01/22 09:57:51;;;;;;;13.95;8.52;;;0.90;99.90;;;-0.24;100.00;98660.28;4960051;28;20061;-70
2023/01/22 10:00:23;;;;;;;11.30;7.65;;;0.80;99.90;;;-0.35;100.00;98662.63;4948177;28;20051;-70
2023/01/22 10:03:02;;;;;;;12.02;7.07;;;0.80;99.90;;;-0.26;100.00;98664.50;4944755;28;20057;-72
2023/01/22 10:05:42;;;;;;;13.18;7.68;;;0.80;99.90;;;-0.28;100.00;98666.16;4948842;28;20050;-71
2023/01/22 10:08:33;;;;;;;15.40;9.43;;;0.80;99.90;;;-0.08;100.00;98666.50;4948141;28;20081;-71
2023/01/22 10:11:01;;;;;;;12.65;8.25;;;0.70;99.90;;;-0.14;100.00;98662.13;4950849;28;20043;-70
2023/01/22 10:13:34;;;;;;;10.80;7.30;;;0.80;99.90;;;0.09;100.00;98665.09;4976891;28;20051;-71
2023/01/22 10:16:02;;;;;;;10.48;6.68;;;1.00;99.90;;;-0.12;100.00;98675.78;4963852;28;20053;-71
2023/01/22 10:18:39;;;;;;;14.80;7.38;;;1.00;99.90;;;0.06;100.00;98666.75;4960095;28;20612;-70